Terminal Aerodrome Forecast
Issued by NWS Jacksonville, FL

Home | Current Version | Previous Version | Text Only | Print | Product List | Glossary On
Versions: 1 2 3 4 5 6 7 8 9 10 11 12 13 14 15 16 17 18 19 20 21 22 23 24 25 26 27 28
000
FTUS42 KJAX 030301 AAA
TAFGNV
TAF AMD
KGNV 030301Z 0303/0324 VRB03KT P6SM SCT035 BKN100
     FM030500 00000KT 4SM BR SCT003 BKN015
     FM030700 00000KT 2SM BR OVC003
     FM031000 00000KT 1/2SM FG OVC001
     FM031430 12007KT 5SM BR BKN015
     FM031530 14008KT P6SM SCT035=

USA.gov is the U.S. government's official web portal to all federal, state and local government web resources and services.